sensor_id;sensor_type;location;lat;lon;timestamp;P1;durP1;ratioP1;P2;durP2;ratioP2
6422;SDS011;3244;42.708;23.288;2023-07-09T00:00:51;12.77;;;3.60;;
6422;SDS011;3244;42.708;23.288;2023-07-09T00:03:19;3.70;;;3.17;;
6422;SDS011;3244;42.708;23.288;2023-07-09T00:05:47;4.43;;;3.03;;
6422;SDS011;3244;42.708;23.288;2023-07-09T00:08:14;4.65;;;2.90;;
6422;SDS011;3244;42.708;23.288;2023-07-09T00:10:47;3.67;;;3.25;;
6422;SDS011;3244;42.708;23.288;2023-07-09T00:13:14;3.45;;;3.00;;
6422;SDS011;3244;42.708;23.288;2023-07-09T00:15:40;5.47;;;3.05;;
6422;SDS011;3244;42.708;23.288;2023-07-09T00:18:07;3.22;;;2.95;;
6422;SDS011;3244;42.708;23.288;2023-07-09T00:20:35;3.03;;;2.83;;
6422;SDS011;3244;42.708;23.288;2023-07-09T00:23:01;3.20;;;2.95;;
6422;SDS011;3244;42.708;23.288;2023-07-09T00:25:30;6.45;;;2.80;;
6422;SDS011;3244;42.708;23.288;2023-07-09T00:27:56;3.65;;;2.78;;
6422;SDS011;3244;42.708;23.288;2023-07-09T00:30:23;5.25;;;2.83;;
6422;SDS011;3244;42.708;23.288;2023-07-09T00:32:49;3.25;;;2.95;;
6422;SDS011;3244;42.708;23.288;2023-07-09T00:35:17;3.65;;;2.90;;
6422;SDS011;3244;42.708;23.288;2023-07-09T00:37:45;8.50;;;2.78;;
6422;SDS011;3244;42.708;23.288;2023-07-09T00:40:16;3.15;;;2.75;;
6422;SDS011;3244;42.708;23.288;2023-07-09T00:42:44;2.88;;;2.67;;
6422;SDS011;3244;42.708;23.288;2023-07-09T00:45:16;3.03;;;2.72;;
6422;SDS011;3244;42.708;23.288;2023-07-09T00:47:43;6.05;;;2.78;;
6422;SDS011;3244;42.708;23.288;2023-07-09T00:50:13;6.38;;;2.92;;
6422;SDS011;3244;42.708;23.288;2023-07-09T00:52:43;3.88;;;3.38;;
6422;SDS011;3244;42.708;23.288;2023-07-09T00:55:15;5.18;;;2.80;;
6422;SDS011;3244;42.708;23.288;2023-07-09T00:57:42;4.18;;;2.65;;
6422;SDS011;3244;42.708;23.288;2023-07-09T01:00:11;6.55;;;3.95;;
6422;SDS011;3244;42.708;23.288;2023-07-09T01:02:40;3.17;;;2.95;;
6422;SDS011;3244;42.708;23.288;2023-07-09T01:05:08;3.00;;;2.70;;
6422;SDS011;3244;42.708;23.288;2023-07-09T01:07:37;5.47;;;2.55;;
6422;SDS011;3244;42.708;23.288;2023-07-09T01:10:03;4.60;;;3.15;;
6422;SDS011;3244;42.708;23.288;2023-07-09T01:12:31;9.15;;;2.67;;
6422;SDS011;3244;42.708;23.288;2023-07-09T01:14:58;3.75;;;2.92;;
6422;SDS011;3244;42.708;23.288;2023-07-09T01:17:25;3.28;;;2.58;;
6422;SDS011;3244;42.708;23.288;2023-07-09T01:19:53;3.33;;;3.13;;
6422;SDS011;3244;42.708;23.288;2023-07-09T01:22:21;2.67;;;2.42;;
6422;SDS011;3244;42.708;23.288;2023-07-09T01:24:57;2.97;;;2.67;;
6422;SDS011;3244;42.708;23.288;2023-07-09T01:27:27;2.92;;;2.75;;
6422;SDS011;3244;42.708;23.288;2023-07-09T01:29:54;4.47;;;2.53;;
6422;SDS011;3244;42.708;23.288;2023-07-09T01:32:21;5.55;;;2.95;;
6422;SDS011;3244;42.708;23.288;2023-07-09T01:34:49;6.32;;;2.88;;
6422;SDS011;3244;42.708;23.288;2023-07-09T01:37:15;3.10;;;2.80;;
6422;SDS011;3244;42.708;23.288;2023-07-09T01:39:43;3.35;;;3.05;;
6422;SDS011;3244;42.708;23.288;2023-07-09T01:42:10;5.97;;;3.42;;
6422;SDS011;3244;42.708;23.288;2023-07-09T01:44:38;2.88;;;2.67;;
6422;SDS011;3244;42.708;23.288;2023-07-09T01:47:05;2.90;;;2.65;;
6422;SDS011;3244;42.708;23.288;2023-07-09T01:49:32;5.25;;;2.88;;
6422;SDS011;3244;42.708;23.288;2023-07-09T01:51:59;3.13;;;2.92;;
6422;SDS011;3244;42.708;23.288;2023-07-09T01:54:27;4.80;;;3.10;;
6422;SDS011;3244;42.708;23.288;2023-07-09T01:57:00;7.40;;;3.17;;
6422;SDS011;3244;42.708;23.288;2023-07-09T01:59:38;3.85;;;3.17;;
6422;SDS011;3244;42.708;23.288;2023-07-09T02:02:06;5.25;;;2.83;;
6422;SDS011;3244;42.708;23.288;2023-07-09T02:04:32;3.42;;;3.22;;
6422;SDS011;3244;42.708;23.288;2023-07-09T02:06:59;4.90;;;3.25;;
6422;SDS011;3244;42.708;23.288;2023-07-09T02:09:25;3.30;;;3.03;;
6422;SDS011;3244;42.708;23.288;2023-07-09T02:11:52;11.07;;;3.53;;
6422;SDS011;3244;42.708;23.288;2023-07-09T02:14:19;6.55;;;3.25;;
6422;SDS011;3244;42.708;23.288;2023-07-09T02:16:46;3.40;;;2.97;;
6422;SDS011;3244;42.708;23.288;2023-07-09T02:19:12;5.50;;;2.80;;
6422;SDS011;3244;42.708;23.288;2023-07-09T02:21:39;5.05;;;3.10;;
6422;SDS011;3244;42.708;23.288;2023-07-09T02:24:05;4.43;;;3.13;;
6422;SDS011;3244;42.708;23.288;2023-07-09T02:26:32;4.70;;;3.28;;
6422;SDS011;3244;42.708;23.288;2023-07-09T02:28:58;3.67;;;3.38;;
6422;SDS011;3244;42.708;23.288;2023-07-09T02:31:26;3.83;;;3.47;;
6422;SDS011;3244;42.708;23.288;2023-07-09T02:33:55;3.88;;;3.53;;
6422;SDS011;3244;42.708;23.288;2023-07-09T02:36:21;2.65;;;2.55;;
6422;SDS011;3244;42.708;23.288;2023-07-09T02:38:47;6.72;;;3.40;;
6422;SDS011;3244;42.708;23.288;2023-07-09T02:41:14;6.30;;;3.40;;
6422;SDS011;3244;42.708;23.288;2023-07-09T02:43:40;7.15;;;3.20;;
6422;SDS011;3244;42.708;23.288;2023-07-09T02:46:07;3.47;;;3.28;;
6422;SDS011;3244;42.708;23.288;2023-07-09T02:48:34;5.70;;;3.15;;
6422;SDS011;3244;42.708;23.288;2023-07-09T02:51:01;4.88;;;3.40;;
6422;SDS011;3244;42.708;23.288;2023-07-09T02:53:27;5.60;;;3.45;;
6422;SDS011;3244;42.708;23.288;2023-07-09T02:55:54;3.88;;;3.65;;
6422;SDS011;3244;42.708;23.288;2023-07-09T02:58:20;7.50;;;3.40;;
6422;SDS011;3244;42.708;23.288;2023-07-09T03:00:48;5.72;;;3.70;;
6422;SDS011;3244;42.708;23.288;2023-07-09T03:03:17;5.35;;;3.35;;
6422;SDS011;3244;42.708;23.288;2023-07-09T03:05:45;4.60;;;3.47;;
6422;SDS011;3244;42.708;23.288;2023-07-09T03:08:12;4.90;;;4.03;;
6422;SDS011;3244;42.708;23.288;2023-07-09T03:10:39;9.55;;;4.00;;
6422;SDS011;3244;42.708;23.288;2023-07-09T03:13:06;5.30;;;4.90;;
6422;SDS011;3244;42.708;23.288;2023-07-09T03:15:32;6.28;;;4.50;;
6422;SDS011;3244;42.708;23.288;2023-07-09T03:17:59;7.10;;;4.40;;
6422;SDS011;3244;42.708;23.288;2023-07-09T03:20:25;5.35;;;4.40;;
6422;SDS011;3244;42.708;23.288;2023-07-09T03:22:53;5.07;;;3.72;;
6422;SDS011;3244;42.708;23.288;2023-07-09T03:25:20;4.63;;;4.32;;
6422;SDS011;3244;42.708;23.288;2023-07-09T03:27:47;4.95;;;3.80;;
6422;SDS011;3244;42.708;23.288;2023-07-09T03:30:13;7.80;;;4.07;;
6422;SDS011;3244;42.708;23.288;2023-07-09T03:32:40;3.58;;;3.30;;
6422;SDS011;3244;42.708;23.288;2023-07-09T03:35:06;7.50;;;3.80;;
6422;SDS011;3244;42.708;23.288;2023-07-09T03:37:33;5.15;;;3.30;;
6422;SDS011;3244;42.708;23.288;2023-07-09T03:40:01;5.07;;;3.47;;
6422;SDS011;3244;42.708;23.288;2023-07-09T03:42:29;3.65;;;3.30;;
6422;SDS011;3244;42.708;23.288;2023-07-09T03:44:55;5.00;;;3.53;;
6422;SDS011;3244;42.708;23.288;2023-07-09T03:47:22;5.47;;;3.42;;
6422;SDS011;3244;42.708;23.288;2023-07-09T03:49:48;4.47;;;3.47;;
6422;SDS011;3244;42.708;23.288;2023-07-09T03:52:15;7.85;;;3.20;;
6422;SDS011;3244;42.708;23.288;2023-07-09T03:54:42;5.05;;;3.03;;
6422;SDS011;3244;42.708;23.288;2023-07-09T03:57:10;3.78;;;3.42;;
6422;SDS011;3244;42.708;23.288;2023-07-09T03:59:36;3.40;;;3.10;;
6422;SDS011;3244;42.708;23.288;2023-07-09T04:02:05;3.78;;;3.40;;
6422;SDS011;3244;42.708;23.288;2023-07-09T04:04:32;4.40;;;3.50;;
6422;SDS011;3244;42.708;23.288;2023-07-09T04:06:58;7.20;;;3.92;;
6422;SDS011;3244;42.708;23.288;2023-07-09T04:09:25;7.90;;;3.67;;
6422;SDS011;3244;42.708;23.288;2023-07-09T04:11:51;3.47;;;3.28;;
6422;SDS011;3244;42.708;23.288;2023-07-09T04:14:19;4.68;;;3.50;;
6422;SDS011;3244;42.708;23.288;2023-07-09T04:16:45;4.68;;;3.33;;
6422;SDS011;3244;42.708;23.288;2023-07-09T04:19:12;3.67;;;3.35;;
6422;SDS011;3244;42.708;23.288;2023-07-09T04:21:38;7.82;;;3.97;;
6422;SDS011;3244;42.708;23.288;2023-07-09T04:24:05;4.07;;;3.72;;
6422;SDS011;3244;42.708;23.288;2023-07-09T04:26:31;6.53;;;3.88;;
6422;SDS011;3244;42.708;23.288;2023-07-09T04:28:58;8.82;;;3.70;;
6422;SDS011;3244;42.708;23.288;2023-07-09T04:31:26;6.57;;;3.70;;
6422;SDS011;3244;42.708;23.288;2023-07-09T04:33:52;6.88;;;3.47;;
6422;SDS011;3244;42.708;23.288;2023-07-09T04:36:19;4.57;;;3.38;;
6422;SDS011;3244;42.708;23.288;2023-07-09T04:38:45;4.40;;;3.80;;
6422;SDS011;3244;42.708;23.288;2023-07-09T04:41:12;5.70;;;2.92;;
6422;SDS011;3244;42.708;23.288;2023-07-09T04:43:38;3.83;;;3.25;;
6422;SDS011;3244;42.708;23.288;2023-07-09T04:46:04;5.47;;;4.63;;
6422;SDS011;3244;42.708;23.288;2023-07-09T04:48:32;4.90;;;4.50;;
6422;SDS011;3244;42.708;23.288;2023-07-09T04:50:59;5.65;;;4.13;;
6422;SDS011;3244;42.708;23.288;2023-07-09T04:53:25;7.13;;;4.53;;
6422;SDS011;3244;42.708;23.288;2023-07-09T04:55:52;4.80;;;2.95;;
6422;SDS011;3244;42.708;23.288;2023-07-09T04:58:18;10.63;;;3.28;;
6422;SDS011;3244;42.708;23.288;2023-07-09T05:00:45;4.05;;;3.75;;
6422;SDS011;3244;42.708;23.288;2023-07-09T05:03:11;5.97;;;4.35;;
6422;SDS011;3244;42.708;23.288;2023-07-09T05:05:43;4.43;;;3.50;;
6422;SDS011;3244;42.708;23.288;2023-07-09T05:08:09;3.65;;;3.45;;
6422;SDS011;3244;42.708;23.288;2023-07-09T05:10:40;4.20;;;3.22;;
6422;SDS011;3244;42.708;23.288;2023-07-09T05:13:06;6.50;;;3.85;;
6422;SDS011;3244;42.708;23.288;2023-07-09T05:15:33;3.65;;;3.35;;
6422;SDS011;3244;42.708;23.288;2023-07-09T05:17:59;4.03;;;3.60;;
6422;SDS011;3244;42.708;23.288;2023-07-09T05:20:25;3.85;;;3.60;;
6422;SDS011;3244;42.708;23.288;2023-07-09T05:22:53;4.38;;;4.00;;
6422;SDS011;3244;42.708;23.288;2023-07-09T05:25:20;11.43;;;4.20;;
6422;SDS011;3244;42.708;23.288;2023-07-09T05:27:46;5.00;;;3.63;;
6422;SDS011;3244;42.708;23.288;2023-07-09T05:30:13;4.65;;;4.18;;
6422;SDS011;3244;42.708;23.288;2023-07-09T05:32:39;6.50;;;4.70;;
6422;SDS011;3244;42.708;23.288;2023-07-09T05:35:06;6.22;;;4.00;;
6422;SDS011;3244;42.708;23.288;2023-07-09T05:37:33;4.97;;;3.60;;
6422;SDS011;3244;42.708;23.288;2023-07-09T05:40:00;6.45;;;3.58;;
6422;SDS011;3244;42.708;23.288;2023-07-09T05:42:29;6.15;;;3.88;;
6422;SDS011;3244;42.708;23.288;2023-07-09T05:44:56;5.00;;;3.60;;
6422;SDS011;3244;42.708;23.288;2023-07-09T05:47:22;3.55;;;3.25;;
6422;SDS011;3244;42.708;23.288;2023-07-09T05:49:49;3.58;;;3.30;;
6422;SDS011;3244;42.708;23.288;2023-07-09T05:52:15;4.20;;;3.75;;
6422;SDS011;3244;42.708;23.288;2023-07-09T05:54:42;4.63;;;4.07;;
6422;SDS011;3244;42.708;23.288;2023-07-09T05:57:09;3.53;;;3.22;;
6422;SDS011;3244;42.708;23.288;2023-07-09T05:59:36;6.93;;;4.00;;
6422;SDS011;3244;42.708;23.288;2023-07-09T06:02:03;4.80;;;3.05;;
6422;SDS011;3244;42.708;23.288;2023-07-09T06:04:30;3.33;;;3.03;;
6422;SDS011;3244;42.708;23.288;2023-07-09T06:06:57;2.97;;;2.78;;
6422;SDS011;3244;42.708;23.288;2023-07-09T06:09:23;7.60;;;3.10;;
6422;SDS011;3244;42.708;23.288;2023-07-09T06:11:49;5.18;;;3.20;;
6422;SDS011;3244;42.708;23.288;2023-07-09T06:14:19;4.53;;;3.50;;
6422;SDS011;3244;42.708;23.288;2023-07-09T06:16:45;3.53;;;3.25;;
6422;SDS011;3244;42.708;23.288;2023-07-09T06:19:12;5.20;;;3.35;;
6422;SDS011;3244;42.708;23.288;2023-07-09T06:21:38;5.05;;;2.92;;
6422;SDS011;3244;42.708;23.288;2023-07-09T06:24:05;3.38;;;2.88;;
6422;SDS011;3244;42.708;23.288;2023-07-09T06:26:32;3.50;;;3.20;;
6422;SDS011;3244;42.708;23.288;2023-07-09T06:28:58;4.97;;;2.88;;
6422;SDS011;3244;42.708;23.288;2023-07-09T06:31:26;3.72;;;2.67;;
6422;SDS011;3244;42.708;23.288;2023-07-09T06:33:52;4.50;;;3.25;;
6422;SDS011;3244;42.708;23.288;2023-07-09T06:36:19;6.13;;;2.97;;
6422;SDS011;3244;42.708;23.288;2023-07-09T06:38:46;3.03;;;2.80;;
6422;SDS011;3244;42.708;23.288;2023-07-09T06:41:13;3.60;;;3.38;;
6422;SDS011;3244;42.708;23.288;2023-07-09T06:43:41;3.22;;;2.92;;
6422;SDS011;3244;42.708;23.288;2023-07-09T06:46:10;3.70;;;3.20;;
6422;SDS011;3244;42.708;23.288;2023-07-09T06:48:39;3.47;;;3.17;;
6422;SDS011;3244;42.708;23.288;2023-07-09T06:51:06;4.25;;;3.40;;
6422;SDS011;3244;42.708;23.288;2023-07-09T06:53:33;3.58;;;3.35;;
6422;SDS011;3244;42.708;23.288;2023-07-09T06:55:59;3.30;;;3.10;;
6422;SDS011;3244;42.708;23.288;2023-07-09T06:58:26;5.55;;;2.80;;
6422;SDS011;3244;42.708;23.288;2023-07-09T07:00:54;3.70;;;3.33;;
6422;SDS011;3244;42.708;23.288;2023-07-09T07:03:21;3.28;;;3.08;;
6422;SDS011;3244;42.708;23.288;2023-07-09T07:05:50;3.33;;;3.22;;
6422;SDS011;3244;42.708;23.288;2023-07-09T07:08:19;5.97;;;3.20;;
6422;SDS011;3244;42.708;23.288;2023-07-09T07:10:48;5.45;;;3.10;;
6422;SDS011;3244;42.708;23.288;2023-07-09T07:13:15;3.28;;;3.03;;
6422;SDS011;3244;42.708;23.288;2023-07-09T07:15:44;4.03;;;3.63;;
6422;SDS011;3244;42.708;23.288;2023-07-09T07:18:14;6.65;;;3.83;;
6422;SDS011;3244;42.708;23.288;2023-07-09T07:20:41;4.05;;;3.55;;
6422;SDS011;3244;42.708;23.288;2023-07-09T07:23:10;3.35;;;3.00;;
6422;SDS011;3244;42.708;23.288;2023-07-09T07:25:38;4.45;;;3.28;;
6422;SDS011;3244;42.708;23.288;2023-07-09T07:28:05;3.65;;;2.97;;
6422;SDS011;3244;42.708;23.288;2023-07-09T07:30:31;3.35;;;3.00;;
6422;SDS011;3244;42.708;23.288;2023-07-09T07:32:58;3.08;;;2.88;;
6422;SDS011;3244;42.708;23.288;2023-07-09T07:35:25;3.78;;;3.03;;
6422;SDS011;3244;42.708;23.288;2023-07-09T07:37:52;3.35;;;3.05;;
6422;SDS011;3244;42.708;23.288;2023-07-09T07:40:20;3.97;;;3.17;;
6422;SDS011;3244;42.708;23.288;2023-07-09T07:42:47;3.05;;;2.85;;
6422;SDS011;3244;42.708;23.288;2023-07-09T07:45:14;3.45;;;3.22;;
6422;SDS011;3244;42.708;23.288;2023-07-09T07:47:40;3.53;;;3.28;;
6422;SDS011;3244;42.708;23.288;2023-07-09T07:50:07;3.28;;;3.17;;
6422;SDS011;3244;42.708;23.288;2023-07-09T07:52:34;2.65;;;2.55;;
6422;SDS011;3244;42.708;23.288;2023-07-09T07:55:02;4.18;;;3.35;;
6422;SDS011;3244;42.708;23.288;2023-07-09T07:57:30;3.25;;;3.15;;
6422;SDS011;3244;42.708;23.288;2023-07-09T07:59:57;3.03;;;2.72;;
6422;SDS011;3244;42.708;23.288;2023-07-09T08:02:23;2.67;;;2.58;;
6422;SDS011;3244;42.708;23.288;2023-07-09T08:04:50;3.70;;;3.40;;
6422;SDS011;3244;42.708;23.288;2023-07-09T08:07:17;3.30;;;3.13;;
6422;SDS011;3244;42.708;23.288;2023-07-09T08:09:45;5.25;;;3.28;;
6422;SDS011;3244;42.708;23.288;2023-07-09T08:12:13;3.20;;;3.00;;
6422;SDS011;3244;42.708;23.288;2023-07-09T08:14:42;3.85;;;2.90;;
6422;SDS011;3244;42.708;23.288;2023-07-09T08:17:11;3.90;;;3.60;;
6422;SDS011;3244;42.708;23.288;2023-07-09T08:19:45;4.65;;;3.35;;
6422;SDS011;3244;42.708;23.288;2023-07-09T08:22:13;3.13;;;2.92;;
6422;SDS011;3244;42.708;23.288;2023-07-09T08:24:40;4.18;;;3.88;;
6422;SDS011;3244;42.708;23.288;2023-07-09T08:27:07;3.60;;;3.33;;
6422;SDS011;3244;42.708;23.288;2023-07-09T08:29:34;3.70;;;3.50;;
6422;SDS011;3244;42.708;23.288;2023-07-09T08:32:03;8.10;;;3.05;;
6422;SDS011;3244;42.708;23.288;2023-07-09T08:34:30;3.30;;;3.10;;
6422;SDS011;3244;42.708;23.288;2023-07-09T08:36:58;6.40;;;3.45;;
6422;SDS011;3244;42.708;23.288;2023-07-09T08:39:25;3.47;;;3.28;;
6422;SDS011;3244;42.708;23.288;2023-07-09T08:41:52;4.20;;;3.40;;
6422;SDS011;3244;42.708;23.288;2023-07-09T08:44:33;3.38;;;3.03;;
6422;SDS011;3244;42.708;23.288;2023-07-09T08:47:21;3.53;;;3.33;;
6422;SDS011;3244;42.708;23.288;2023-07-09T08:49:54;3.67;;;3.25;;
6422;SDS011;3244;42.708;23.288;2023-07-09T08:52:24;2.95;;;2.75;;
6422;SDS011;3244;42.708;23.288;2023-07-09T08:54:54;3.40;;;3.20;;
6422;SDS011;3244;42.708;23.288;2023-07-09T08:57:22;4.30;;;3.20;;
6422;SDS011;3244;42.708;23.288;2023-07-09T08:59:52;3.10;;;2.90;;
6422;SDS011;3244;42.708;23.288;2023-07-09T09:02:25;3.53;;;3.22;;
6422;SDS011;3244;42.708;23.288;2023-07-09T09:04:56;3.25;;;3.05;;
6422;SDS011;3244;42.708;23.288;2023-07-09T09:07:26;3.47;;;3.17;;
6422;SDS011;3244;42.708;23.288;2023-07-09T09:10:00;3.05;;;2.85;;
6422;SDS011;3244;42.708;23.288;2023-07-09T09:12:29;3.70;;;3.15;;
6422;SDS011;3244;42.708;23.288;2023-07-09T09:15:00;4.35;;;3.13;;
6422;SDS011;3244;42.708;23.288;2023-07-09T09:17:32;3.58;;;3.28;;
6422;SDS011;3244;42.708;23.288;2023-07-09T09:20:04;4.82;;;2.70;;
6422;SDS011;3244;42.708;23.288;2023-07-09T09:22:38;4.32;;;3.35;;
6422;SDS011;3244;42.708;23.288;2023-07-09T09:25:11;3.33;;;3.13;;
6422;SDS011;3244;42.708;23.288;2023-07-09T09:27:47;3.55;;;3.35;;
6422;SDS011;3244;42.708;23.288;2023-07-09T09:30:14;4.65;;;4.05;;
6422;SDS011;3244;42.708;23.288;2023-07-09T09:32:44;3.70;;;3.25;;
6422;SDS011;3244;42.708;23.288;2023-07-09T09:35:14;3.83;;;3.55;;
6422;SDS011;3244;42.708;23.288;2023-07-09T09:37:44;3.83;;;3.53;;
6422;SDS011;3244;42.708;23.288;2023-07-09T09:40:18;3.60;;;3.30;;
6422;SDS011;3244;42.708;23.288;2023-07-09T09:42:47;4.50;;;4.10;;
6422;SDS011;3244;42.708;23.288;2023-07-09T09:45:15;3.10;;;2.90;;
6422;SDS011;3244;42.708;23.288;2023-07-09T09:47:47;3.30;;;3.10;;
6422;SDS011;3244;42.708;23.288;2023-07-09T09:50:15;3.75;;;3.45;;
6422;SDS011;3244;42.708;23.288;2023-07-09T09:52:43;3.53;;;3.33;;
6422;SDS011;3244;42.708;23.288;2023-07-09T09:55:10;4.15;;;3.95;;
6422;SDS011;3244;42.708;23.288;2023-07-09T09:57:38;6.45;;;3.60;;
6422;SDS011;3244;42.708;23.288;2023-07-09T10:00:05;3.85;;;3.65;;
6422;SDS011;3244;42.708;23.288;2023-07-09T10:02:38;3.42;;;3.17;;
6422;SDS011;3244;42.708;23.288;2023-07-09T10:05:10;4.07;;;3.47;;
6422;SDS011;3244;42.708;23.288;2023-07-09T10:07:39;3.60;;;3.40;;
6422;SDS011;3244;42.708;23.288;2023-07-09T10:10:09;4.45;;;3.67;;
6422;SDS011;3244;42.708;23.288;2023-07-09T10:12:39;3.88;;;3.63;;
6422;SDS011;3244;42.708;23.288;2023-07-09T10:15:17;3.13;;;2.92;;
6422;SDS011;3244;42.708;23.288;2023-07-09T10:17:47;7.80;;;3.72;;
6422;SDS011;3244;42.708;23.288;2023-07-09T10:20:20;3.70;;;3.40;;
6422;SDS011;3244;42.708;23.288;2023-07-09T10:22:50;3.95;;;3.45;;
6422;SDS011;3244;42.708;23.288;2023-07-09T10:25:21;3.97;;;3.78;;
6422;SDS011;3244;42.708;23.288;2023-07-09T10:27:58;3.10;;;2.90;;
6422;SDS011;3244;42.708;23.288;2023-07-09T10:30:32;3.65;;;3.10;;
6422;SDS011;3244;42.708;23.288;2023-07-09T10:33:05;4.15;;;3.70;;
6422;SDS011;3244;42.708;23.288;2023-07-09T10:35:37;3.05;;;2.88;;
6422;SDS011;3244;42.708;23.288;2023-07-09T10:38:14;4.28;;;3.58;;
6422;SDS011;3244;42.708;23.288;2023-07-09T10:40:46;4.00;;;3.70;;
6422;SDS011;3244;42.708;23.288;2023-07-09T10:43:15;4.38;;;3.97;;
6422;SDS011;3244;42.708;23.288;2023-07-09T10:45:44;3.92;;;3.72;;
6422;SDS011;3244;42.708;23.288;2023-07-09T10:48:12;5.75;;;3.42;;
6422;SDS011;3244;42.708;23.288;2023-07-09T10:50:41;3.83;;;3.47;;
6422;SDS011;3244;42.708;23.288;2023-07-09T10:53:09;3.97;;;3.55;;
6422;SDS011;3244;42.708;23.288;2023-07-09T10:55:39;7.43;;;3.17;;
6422;SDS011;3244;42.708;23.288;2023-07-09T10:58:10;3.58;;;3.28;;
6422;SDS011;3244;42.708;23.288;2023-07-09T11:00:41;3.22;;;2.85;;
6422;SDS011;3244;42.708;23.288;2023-07-09T11:03:14;3.63;;;3.33;;
6422;SDS011;3244;42.708;23.288;2023-07-09T11:05:43;3.80;;;3.58;;
6422;SDS011;3244;42.708;23.288;2023-07-09T11:08:11;3.72;;;3.05;;
6422;SDS011;3244;42.708;23.288;2023-07-09T11:10:40;3.63;;;3.30;;
6422;SDS011;3244;42.708;23.288;2023-07-09T11:13:10;3.85;;;3.63;;
6422;SDS011;3244;42.708;23.288;2023-07-09T11:15:37;5.25;;;2.85;;
6422;SDS011;3244;42.708;23.288;2023-07-09T11:18:05;3.15;;;2.92;;
6422;SDS011;3244;42.708;23.288;2023-07-09T11:20:32;2.85;;;2.72;;
6422;SDS011;3244;42.708;23.288;2023-07-09T11:23:03;5.07;;;2.60;;
6422;SDS011;3244;42.708;23.288;2023-07-09T11:25:31;6.25;;;3.00;;
6422;SDS011;3244;42.708;23.288;2023-07-09T11:28:04;3.08;;;2.88;;
6422;SDS011;3244;42.708;23.288;2023-07-09T11:30:31;4.20;;;3.55;;
6422;SDS011;3244;42.708;23.288;2023-07-09T11:32:58;3.70;;;3.50;;
6422;SDS011;3244;42.708;23.288;2023-07-09T11:35:25;5.93;;;3.15;;
6422;SDS011;3244;42.708;23.288;2023-07-09T11:37:52;3.15;;;2.95;;
6422;SDS011;3244;42.708;23.288;2023-07-09T11:40:21;5.72;;;3.10;;
6422;SDS011;3244;42.708;23.288;2023-07-09T11:42:49;3.50;;;3.10;;
6422;SDS011;3244;42.708;23.288;2023-07-09T11:45:16;4.60;;;2.90;;
6422;SDS011;3244;42.708;23.288;2023-07-09T11:47:44;3.67;;;3.05;;
6422;SDS011;3244;42.708;23.288;2023-07-09T11:50:15;3.08;;;2.85;;
6422;SDS011;3244;42.708;23.288;2023-07-09T11:52:47;3.28;;;3.08;;
6422;SDS011;3244;42.708;23.288;2023-07-09T11:55:27;3.33;;;3.00;;
6422;SDS011;3244;42.708;23.288;2023-07-09T11:57:54;3.75;;;3.45;;
6422;SDS011;3244;42.708;23.288;2023-07-09T12:00:20;4.45;;;3.55;;
6422;SDS011;3244;42.708;23.288;2023-07-09T12:02:47;3.05;;;2.85;;
6422;SDS011;3244;42.708;23.288;2023-07-09T12:05:13;3.65;;;3.35;;
6422;SDS011;3244;42.708;23.288;2023-07-09T12:07:44;3.47;;;3.28;;
6422;SDS011;3244;42.708;23.288;2023-07-09T12:10:15;4.45;;;3.40;;
6422;SDS011;3244;42.708;23.288;2023-07-09T12:12:44;15.10;;;11.77;;
6422;SDS011;3244;42.708;23.288;2023-07-09T12:15:12;12.60;;;9.13;;
6422;SDS011;3244;42.708;23.288;2023-07-09T12:17:42;9.00;;;6.25;;
6422;SDS011;3244;42.708;23.288;2023-07-09T12:20:09;6.07;;;5.57;;
6422;SDS011;3244;42.708;23.288;2023-07-09T12:22:36;5.35;;;3.97;;
6422;SDS011;3244;42.708;23.288;2023-07-09T12:25:03;4.03;;;3.63;;
6422;SDS011;3244;42.708;23.288;2023-07-09T12:27:36;3.50;;;3.20;;
6422;SDS011;3244;42.708;23.288;2023-07-09T12:30:09;3.25;;;3.05;;
6422;SDS011;3244;42.708;23.288;2023-07-09T12:32:42;3.22;;;2.97;;
6422;SDS011;3244;42.708;23.288;2023-07-09T12:35:11;6.20;;;3.17;;
6422;SDS011;3244;42.708;23.288;2023-07-09T12:37:38;3.35;;;3.10;;
6422;SDS011;3244;42.708;23.288;2023-07-09T12:40:07;6.13;;;3.40;;
6422;SDS011;3244;42.708;23.288;2023-07-09T12:42:37;7.60;;;2.75;;
6422;SDS011;3244;42.708;23.288;2023-07-09T12:45:08;8.25;;;3.10;;
6422;SDS011;3244;42.708;23.288;2023-07-09T12:47:35;3.83;;;3.22;;
6422;SDS011;3244;42.708;23.288;2023-07-09T12:50:03;3.17;;;2.85;;
6422;SDS011;3244;42.708;23.288;2023-07-09T12:52:29;3.72;;;3.30;;
6422;SDS011;3244;42.708;23.288;2023-07-09T12:54:56;6.60;;;2.78;;
6422;SDS011;3244;42.708;23.288;2023-07-09T12:57:23;3.03;;;2.85;;
6422;SDS011;3244;42.708;23.288;2023-07-09T12:59:50;3.97;;;2.80;;
6422;SDS011;3244;42.708;23.288;2023-07-09T13:02:19;3.00;;;2.80;;
6422;SDS011;3244;42.708;23.288;2023-07-09T13:04:45;2.92;;;2.63;;
6422;SDS011;3244;42.708;23.288;2023-07-09T13:10:04;2.92;;;2.72;;
6422;SDS011;3244;42.708;23.288;2023-07-09T13:12:31;3.13;;;2.92;;
6422;SDS011;3244;42.708;23.288;2023-07-09T13:14:58;3.85;;;2.50;;
6422;SDS011;3244;42.708;23.288;2023-07-09T13:17:28;2.90;;;2.70;;
6422;SDS011;3244;42.708;23.288;2023-07-09T13:19:55;3.33;;;3.13;;
6422;SDS011;3244;42.708;23.288;2023-07-09T13:22:22;6.35;;;2.60;;
6422;SDS011;3244;42.708;23.288;2023-07-09T13:24:49;3.30;;;3.00;;
6422;SDS011;3244;42.708;23.288;2023-07-09T13:27:15;3.00;;;2.75;;
6422;SDS011;3244;42.708;23.288;2023-07-09T13:29:42;6.93;;;2.72;;
6422;SDS011;3244;42.708;23.288;2023-07-09T13:32:09;3.08;;;2.70;;
6422;SDS011;3244;42.708;23.288;2023-07-09T13:34:37;4.97;;;3.25;;
6422;SDS011;3244;42.708;23.288;2023-07-09T13:37:05;3.90;;;3.58;;
6422;SDS011;3244;42.708;23.288;2023-07-09T13:39:32;4.43;;;3.03;;
6422;SDS011;3244;42.708;23.288;2023-07-09T13:41:58;4.00;;;2.67;;
6422;SDS011;3244;42.708;23.288;2023-07-09T13:44:27;3.45;;;3.00;;
6422;SDS011;3244;42.708;23.288;2023-07-09T13:46:54;3.20;;;2.90;;
6422;SDS011;3244;42.708;23.288;2023-07-09T13:49:21;3.22;;;3.03;;
6422;SDS011;3244;42.708;23.288;2023-07-09T13:51:51;3.42;;;3.15;;
6422;SDS011;3244;42.708;23.288;2023-07-09T13:54:19;4.63;;;3.17;;
6422;SDS011;3244;42.708;23.288;2023-07-09T13:56:46;4.05;;;3.00;;
6422;SDS011;3244;42.708;23.288;2023-07-09T13:59:15;3.10;;;2.78;;
6422;SDS011;3244;42.708;23.288;2023-07-09T14:01:42;5.60;;;3.15;;
6422;SDS011;3244;42.708;23.288;2023-07-09T14:04:09;3.72;;;3.30;;
6422;SDS011;3244;42.708;23.288;2023-07-09T14:06:37;3.35;;;3.05;;
6422;SDS011;3244;42.708;23.288;2023-07-09T14:09:05;9.25;;;3.35;;
6422;SDS011;3244;42.708;23.288;2023-07-09T14:11:32;3.30;;;3.00;;
6422;SDS011;3244;42.708;23.288;2023-07-09T14:13:58;5.38;;;2.70;;
6422;SDS011;3244;42.708;23.288;2023-07-09T14:16:25;3.80;;;3.20;;
6422;SDS011;3244;42.708;23.288;2023-07-09T14:18:51;4.95;;;3.10;;
6422;SDS011;3244;42.708;23.288;2023-07-09T14:21:20;3.10;;;2.90;;
6422;SDS011;3244;42.708;23.288;2023-07-09T14:23:49;9.77;;;3.17;;
6422;SDS011;3244;42.708;23.288;2023-07-09T14:26:17;3.70;;;3.17;;
6422;SDS011;3244;42.708;23.288;2023-07-09T14:28:43;8.95;;;3.15;;
6422;SDS011;3244;42.708;23.288;2023-07-09T14:31:13;6.63;;;2.60;;
6422;SDS011;3244;42.708;23.288;2023-07-09T14:33:43;2.80;;;2.60;;
6422;SDS011;3244;42.708;23.288;2023-07-09T14:36:10;5.65;;;2.72;;
6422;SDS011;3244;42.708;23.288;2023-07-09T14:38:36;3.28;;;2.80;;
6422;SDS011;3244;42.708;23.288;2023-07-09T14:41:04;2.67;;;2.58;;
6422;SDS011;3244;42.708;23.288;2023-07-09T14:43:35;2.80;;;2.42;;
6422;SDS011;3244;42.708;23.288;2023-07-09T14:46:01;4.80;;;3.00;;
6422;SDS011;3244;42.708;23.288;2023-07-09T14:48:28;4.80;;;2.80;;
6422;SDS011;3244;42.708;23.288;2023-07-09T14:50:54;3.00;;;2.80;;
6422;SDS011;3244;42.708;23.288;2023-07-09T14:53:22;3.30;;;2.97;;
6422;SDS011;3244;42.708;23.288;2023-07-09T14:55:51;3.78;;;2.40;;
6422;SDS011;3244;42.708;23.288;2023-07-09T14:58:19;7.35;;;2.63;;
6422;SDS011;3244;42.708;23.288;2023-07-09T15:00:47;3.05;;;2.72;;
6422;SDS011;3244;42.708;23.288;2023-07-09T15:03:16;3.30;;;3.00;;
6422;SDS011;3244;42.708;23.288;2023-07-09T15:05:43;3.33;;;3.13;;
6422;SDS011;3244;42.708;23.288;2023-07-09T15:08:11;8.20;;;3.05;;